Time;durP1;ratioP1;P1;durP2;ratioP2;P2;SDS_P1;SDS_P2;PMS_P1;PMS_P2;Temp;Humidity;BMP_temperature;BMP_pressure;BME280_temperature;BME280_humidity;BME280_pressure;Samples;Min_cycle;Max_cycle;Signal;HPM_P1;HPM_P2
2023/08/20 00:00:08;;;;;;;11.50;7.60;;;;;;;28.68;37.72;100670.69;108379;1278;21958;-69
2023/08/20 00:02:33;;;;;;;10.80;7.70;;;;;;;28.67;37.71;100671.67;108419;1283;21985;-68
2023/08/20 00:04:59;;;;;;;9.10;6.80;;;;;;;28.67;37.83;100674.80;108067;1280;21984;-59
2023/08/20 00:07:25;;;;;;;10.30;7.70;;;;;;;28.66;37.77;100671.38;108304;1280;21989;-59
2023/08/20 00:09:51;;;;;;;12.70;7.30;;;;;;;28.67;37.89;100669.53;108439;1278;21997;-69
2023/08/20 00:12:16;;;;;;;12.30;7.40;;;;;;;28.67;37.88;100664.45;108387;1282;21989;-69
2023/08/20 00:14:54;;;;;;;10.30;7.40;;;;;;;28.68;37.98;100666.89;108430;1281;21995;-59
2023/08/20 00:17:21;;;;;;;9.10;7.60;;;;;;;28.68;37.98;100667.29;108414;1278;21984;-59
2023/08/20 00:19:47;;;;;;;7.80;6.60;;;;;;;28.67;37.87;100665.91;108459;1281;21996;-69
2023/08/20 00:22:13;;;;;;;12.00;6.80;;;;;;;28.67;38.03;100664.14;108463;1278;23538;-59
2023/08/20 00:24:39;;;;;;;9.10;7.30;;;;;;;28.65;38.09;100667.52;108326;1283;21980;-58
2023/08/20 00:27:04;;;;;;;8.90;7.20;;;;;;;28.64;38.01;100667.73;108453;1282;21978;-59
2023/08/20 00:29:30;;;;;;;8.50;6.80;;;;;;;28.63;38.13;100663.48;108410;1276;21997;-59
2023/08/20 00:31:56;;;;;;;12.20;7.60;;;;;;;28.63;38.18;100659.73;108377;1283;22045;-59
2023/08/20 00:34:21;;;;;;;10.30;7.00;;;;;;;28.61;38.16;100659.39;108368;1278;21994;-59
2023/08/20 00:36:47;;;;;;;11.20;7.60;;;;;;;28.58;38.08;100658.50;108381;1277;21995;-59
2023/08/20 00:39:12;;;;;;;12.90;7.20;;;;;;;28.57;38.36;100657.84;108392;1278;21983;-68
2023/08/20 00:41:38;;;;;;;11.10;7.00;;;;;;;28.60;38.26;100658.53;108415;1282;21991;-59
2023/08/20 00:44:03;;;;;;;14.70;7.00;;;;;;;28.61;38.29;100657.34;108404;1278;21989;-59
2023/08/20 00:46:29;;;;;;;10.00;6.90;;;;;;;28.62;38.27;100654.20;108406;1278;22555;-69
2023/08/20 00:48:56;;;;;;;11.80;7.30;;;;;;;28.62;38.34;100654.23;108415;1281;21986;-59
2023/08/20 00:51:22;;;;;;;13.30;8.00;;;;;;;28.60;38.29;100653.46;108404;1274;21995;-59
2023/08/20 00:53:47;;;;;;;11.00;6.80;;;;;;;28.59;38.19;100652.81;108426;1281;23711;-59
2023/08/20 00:56:13;;;;;;;8.90;6.80;;;;;;;28.56;38.45;100652.34;108358;1281;21982;-68
2023/08/20 00:58:38;;;;;;;10.30;7.00;;;;;;;28.57;38.54;100652.68;108381;1283;21996;-59
2023/08/20 01:01:04;;;;;;;12.80;6.80;;;;;;;28.55;38.56;100652.79;108319;1278;21998;-58
2023/08/20 01:03:30;;;;;;;9.90;7.30;;;;;;;28.53;38.57;100654.41;108383;1278;21986;-59
2023/08/20 01:06:02;;;;;;;10.70;7.10;;;;;;;28.51;38.61;100652.77;108379;1277;21960;-69
2023/08/20 01:08:31;;;;;;;9.60;7.40;;;;;;;28.49;38.57;100655.27;108438;1283;23667;-65
2023/08/20 01:11:03;;;;;;;11.80;6.90;;;;;;;28.44;38.53;100652.79;108427;1280;21983;-59
2023/08/20 01:13:29;;;;;;;10.90;7.40;;;;;;;28.43;38.69;100652.73;108409;1277;21989;-69
2023/08/20 01:15:55;;;;;;;9.90;7.10;;;;;;;28.42;38.59;100652.30;108344;1280;21995;-68
2023/08/20 01:18:20;;;;;;;8.20;7.20;;;;;;;28.40;38.88;100651.88;108375;1275;21981;-69
2023/08/20 01:20:51;;;;;;;10.80;7.20;;;;;;;28.40;38.79;100650.66;108386;1278;21984;-68
2023/08/20 01:23:27;;;;;;;10.60;7.20;;;;;;;28.39;38.68;100653.09;108354;1278;21991;-69
2023/08/20 01:26:14;;;;;;;11.50;7.10;;;;;;;28.36;38.73;100655.30;108345;1284;21994;-69
2023/08/20 01:28:40;;;;;;;9.70;7.10;;;;;;;28.32;39.08;100655.62;108328;1274;21987;-58
2023/08/20 01:31:05;;;;;;;10.20;6.90;;;;;;;28.30;39.10;100656.71;108197;1284;21970;-69
2023/08/20 01:33:31;;;;;;;9.80;7.60;;;;;;;28.27;39.13;100651.66;108179;1274;21993;-61
2023/08/20 01:35:57;;;;;;;9.10;7.00;;;;;;;28.26;39.04;100652.69;108355;1284;22052;-69
2023/08/20 01:38:22;;;;;;;11.30;6.60;;;;;;;28.23;39.02;100651.84;108405;1281;21992;-69
2023/08/20 01:40:48;;;;;;;6.60;5.90;;;;;;;28.22;39.25;100648.19;108350;1277;22020;-60
2023/08/20 01:43:14;;;;;;;9.30;6.00;;;;;;;28.22;39.15;100651.44;108384;1278;21981;-69
2023/08/20 01:45:39;;;;;;;10.50;7.00;;;;;;;28.22;39.22;100654.30;108379;1278;21984;-59
2023/08/20 01:48:06;;;;;;;7.50;6.10;;;;;;;28.21;39.22;100654.76;108379;1278;22210;-62
2023/08/20 01:50:32;;;;;;;7.90;6.10;;;;;;;28.20;39.24;100651.73;108365;1283;22018;-59
2023/08/20 01:52:58;;;;;;;10.20;6.50;;;;;;;28.19;39.30;100650.15;108362;1283;23047;-69
2023/08/20 01:55:23;;;;;;;12.40;7.40;;;;;;;28.19;39.33;100651.04;108358;1284;21987;-68
2023/08/20 01:57:49;;;;;;;8.80;6.60;;;;;;;28.20;39.29;100651.53;108380;1282;22075;-58
2023/08/20 02:00:14;;;;;;;9.40;6.40;;;;;;;28.19;39.52;100651.29;108409;1278;22023;-69
2023/08/20 02:02:40;;;;;;;11.20;6.60;;;;;;;28.17;39.49;100653.38;108388;1279;21997;-59
2023/08/20 02:05:06;;;;;;;7.70;6.10;;;;;;;28.14;39.52;100653.80;108333;1283;21988;-61
2023/08/20 02:07:32;;;;;;;11.60;7.20;;;;;;;28.11;39.66;100653.90;108502;1283;21982;-58
2023/08/20 02:09:57;;;;;;;11.10;6.50;;;;;;;28.09;39.51;100658.23;108380;1278;21985;-69
2023/08/20 02:12:23;;;;;;;8.90;6.80;;;;;;;28.08;39.59;100660.84;108409;1278;22012;-69
2023/08/20 02:14:49;;;;;;;9.50;7.60;;;;;;;28.06;39.78;100656.46;108099;1284;21996;-61
2023/08/20 02:17:14;;;;;;;12.00;7.10;;;;;;;28.04;39.70;100658.92;108353;1284;21983;-68
2023/08/20 02:19:40;;;;;;;11.60;7.10;;;;;;;28.00;40.06;100659.99;108364;1277;21996;-67
2023/08/20 02:22:05;;;;;;;9.50;6.10;;;;;;;27.96;40.06;100663.38;108305;1284;21987;-59
2023/08/20 02:24:31;;;;;;;8.30;5.70;;;;;;;27.95;40.06;100664.77;108337;1275;21992;-59
2023/08/20 02:26:57;;;;;;;8.10;6.20;;;;;;;27.95;39.90;100663.27;108225;1278;21994;-69
2023/08/20 02:29:22;;;;;;;9.00;6.20;;;;;;;27.96;39.97;100662.48;108311;1281;23638;-59
2023/08/20 02:31:48;;;;;;;8.80;6.40;;;;;;;27.95;39.95;100663.65;108399;1278;22021;-70
2023/08/20 02:34:13;;;;;;;7.90;6.50;;;;;;;27.95;39.97;100660.79;108339;1284;22023;-60
2023/08/20 02:36:39;;;;;;;11.50;6.30;;;;;;;27.94;40.12;100661.98;108393;1277;24034;-70
2023/08/20 02:39:07;;;;;;;10.70;6.50;;;;;;;27.91;40.23;100665.59;108335;1283;22164;-59
2023/08/20 02:41:36;;;;;;;9.70;6.40;;;;;;;27.86;40.34;100665.60;108357;1274;21984;-60
2023/08/20 02:44:03;;;;;;;8.20;6.30;;;;;;;27.84;40.39;100666.90;108336;1283;22004;-60
2023/08/20 02:46:29;;;;;;;11.30;6.70;;;;;;;27.81;40.32;100666.40;108408;1283;21986;-59
2023/08/20 02:48:54;;;;;;;8.90;6.60;;;;;;;27.80;40.36;100668.34;108404;1281;22020;-71
2023/08/20 02:51:20;;;;;;;10.80;7.50;;;;;;;27.78;40.45;100664.88;108351;1277;21994;-61
2023/08/20 02:53:46;;;;;;;8.80;6.00;;;;;;;27.76;40.59;100664.63;108337;1274;22013;-70
2023/08/20 02:56:11;;;;;;;7.60;6.20;;;;;;;27.75;40.57;100667.04;108355;1278;22023;-59
2023/08/20 02:58:37;;;;;;;8.20;5.40;;;;;;;27.75;40.63;100663.84;108364;1281;21983;-60
2023/08/20 03:01:02;;;;;;;9.30;6.70;;;;;;;27.74;40.60;100664.27;108338;1283;21982;-71
2023/08/20 03:03:28;;;;;;;12.00;6.20;;;;;;;27.74;40.77;100662.61;108336;1283;21985;-59
2023/08/20 03:05:53;;;;;;;12.20;6.00;;;;;;;27.74;40.83;100658.46;108446;1275;22459;-59
2023/08/20 03:08:19;;;;;;;13.80;6.90;;;;;;;27.74;40.75;100659.77;108411;1274;21979;-72
2023/08/20 03:10:45;;;;;;;12.90;7.30;;;;;;;27.74;40.75;100663.14;108435;1283;23728;-60
2023/08/20 03:13:11;;;;;;;9.00;6.50;;;;;;;27.74;40.71;100662.79;108375;1282;22051;-58
2023/08/20 03:15:36;;;;;;;10.60;6.30;;;;;;;27.74;41.01;100663.90;108355;1278;22102;-71
2023/08/20 03:18:03;;;;;;;11.30;6.40;;;;;;;27.73;40.92;100666.11;108409;1283;21982;-71
2023/08/20 03:20:30;;;;;;;11.50;5.70;;;;;;;27.73;40.96;100662.91;108482;1282;22447;-58
2023/08/20 03:22:56;;;;;;;13.70;6.40;;;;;;;27.73;41.06;100659.50;108414;1278;21976;-71
2023/08/20 03:25:22;;;;;;;11.70;6.40;;;;;;;27.74;41.15;100662.98;108476;1275;21985;-58
2023/08/20 03:27:49;;;;;;;9.50;6.30;;;;;;;27.74;41.38;100664.06;108353;1283;23332;-71
2023/08/20 03:30:14;;;;;;;13.30;6.70;;;;;;;27.74;41.27;100666.75;108411;1278;21980;-70
2023/08/20 03:32:40;;;;;;;14.50;6.90;;;;;;;27.75;41.30;100666.66;108467;1282;22113;-72
2023/08/20 03:35:06;;;;;;;14.60;6.40;;;;;;;27.77;41.38;100664.77;108345;1283;21986;-58
2023/08/20 03:37:32;;;;;;;10.90;6.60;;;;;;;27.79;41.38;100667.51;108358;1282;21986;-61
2023/08/20 03:39:57;;;;;;;9.20;6.80;;;;;;;27.80;41.36;100668.30;108377;1283;21986;-70
2023/08/20 03:42:23;;;;;;;10.80;6.40;;;;;;;27.80;41.51;100663.27;108342;1281;21983;-59
2023/08/20 03:44:48;;;;;;;10.40;6.30;;;;;;;27.80;41.60;100660.71;108370;1278;21983;-65
2023/08/20 03:47:15;;;;;;;12.20;6.00;;;;;;;27.82;41.54;100661.25;108329;1283;21985;-70
2023/08/20 03:49:41;;;;;;;7.00;5.20;;;;;;;27.85;41.74;100662.30;108373;1281;21988;-59
2023/08/20 03:52:06;;;;;;;9.60;6.00;;;;;;;27.88;41.63;100660.06;108347;1278;21988;-58
2023/08/20 03:54:33;;;;;;;10.60;6.00;;;;;;;27.92;41.79;100660.30;108339;1277;22005;-58
2023/08/20 03:56:58;;;;;;;12.90;6.70;;;;;;;27.96;41.97;100660.01;108342;1277;21987;-69
2023/08/20 03:59:24;;;;;;;10.60;5.70;;;;;;;28.01;41.85;100663.37;108368;1274;22020;-58
2023/08/20 04:01:50;;;;;;;11.20;6.80;;;;;;;28.07;42.01;100657.88;108360;1278;21987;-70
2023/08/20 04:04:15;;;;;;;10.80;6.50;;;;;;;28.12;42.10;100654.52;108350;1283;22014;-60
2023/08/20 04:06:41;;;;;;;13.70;7.10;;;;;;;28.19;42.12;100650.23;108449;1282;21994;-58
2023/08/20 04:09:07;;;;;;;9.70;6.10;;;;;;;28.26;42.07;100649.80;108396;1276;21990;-62
2023/08/20 04:11:32;;;;;;;11.70;6.40;;;;;;;28.34;42.15;100649.89;108410;1283;22018;-70
2023/08/20 04:13:58;;;;;;;9.90;6.10;;;;;;;28.41;42.22;100648.91;108349;1276;22025;-58
2023/08/20 04:16:24;;;;;;;10.60;6.10;;;;;;;28.50;42.19;100646.41;108347;1277;21986;-59
2023/08/20 04:18:50;;;;;;;8.00;6.30;;;;;;;28.58;42.37;100646.27;108434;1278;21986;-58
2023/08/20 04:21:15;;;;;;;9.10;6.30;;;;;;;28.67;42.36;100642.77;108340;1278;22006;-58
2023/08/20 04:23:41;;;;;;;11.80;6.00;;;;;;;28.77;42.30;100644.69;108326;1283;21994;-58
2023/08/20 04:26:07;;;;;;;12.30;6.30;;;;;;;28.85;42.32;100642.53;108355;1278;21954;-70
2023/08/20 04:28:33;;;;;;;10.20;6.10;;;;;;;28.95;42.25;100641.16;108420;1281;21997;-70
2023/08/20 04:31:00;;;;;;;9.80;6.40;;;;;;;29.04;42.38;100642.59;108219;1281;22453;-60
2023/08/20 04:33:26;;;;;;;9.80;6.20;;;;;;;29.15;42.25;100640.32;108382;1283;22736;-62
2023/08/20 04:35:51;;;;;;;7.80;6.20;;;;;;;29.24;42.10;100640.67;108352;1283;21984;-59
2023/08/20 04:38:17;;;;;;;7.80;6.10;;;;;;;29.33;42.06;100642.77;108306;1282;22026;-70
2023/08/20 04:40:46;;;;;;;12.00;6.80;;;;;;;29.45;41.99;100639.20;108332;1283;21986;-70
2023/08/20 04:43:11;;;;;;;11.70;6.20;;;;;;;29.57;42.06;100641.45;108362;1278;21994;-70
2023/08/20 04:45:37;;;;;;;17.20;6.60;;;;;;;29.69;42.04;100643.30;108331;1284;21988;-58
2023/08/20 04:48:03;;;;;;;10.70;6.80;;;;;;;29.82;41.90;100639.79;108382;1283;21987;-72
2023/08/20 04:50:28;;;;;;;9.70;6.00;;;;;;;29.93;41.74;100642.02;108349;1283;22026;-71
2023/08/20 04:52:54;;;;;;;10.10;6.40;;;;;;;30.04;41.79;100645.20;108361;1278;22020;-71
2023/08/20 04:55:20;;;;;;;8.50;6.00;;;;;;;30.17;41.76;100646.41;108341;1281;21993;-69
2023/08/20 04:57:46;;;;;;;10.30;6.20;;;;;;;30.30;41.78;100647.55;108352;1278;21984;-59
2023/08/20 05:00:12;;;;;;;8.20;5.90;;;;;;;30.42;41.57;100648.13;108343;1282;21984;-71
2023/08/20 05:02:37;;;;;;;11.30;6.30;;;;;;;30.55;41.52;100645.30;108332;1283;21986;-70
2023/08/20 05:05:03;;;;;;;10.00;6.20;;;;;;;30.70;41.42;100645.00;108351;1280;21990;-59
2023/08/20 05:07:29;;;;;;;10.00;6.60;;;;;;;30.85;41.33;100646.17;108505;1283;21984;-69
2023/08/20 05:09:55;;;;;;;11.30;6.10;;;;;;;30.94;41.30;100644.25;108317;1284;22465;-70
2023/08/20 05:12:20;;;;;;;10.30;6.20;;;;;;;31.07;41.15;100641.40;108341;1283;21999;-69
2023/08/20 05:14:46;;;;;;;7.80;5.80;;;;;;;31.21;40.95;100638.32;108406;1274;21972;-72
2023/08/20 05:17:12;;;;;;;11.50;5.80;;;;;;;31.35;40.91;100636.21;108298;1281;21986;-71
2023/08/20 05:19:37;;;;;;;9.20;6.00;;;;;;;31.55;40.70;100636.67;108364;1281;21991;-59
2023/08/20 05:22:03;;;;;;;10.00;6.10;;;;;;;31.72;40.52;100636.27;108347;1279;21994;-60
2023/08/20 05:24:29;;;;;;;15.30;6.50;;;;;;;31.86;40.21;100634.77;108354;1278;21981;-71
2023/08/20 05:27:07;;;;;;;8.70;5.80;;;;;;;31.99;40.33;100636.39;108378;1283;21994;-70
2023/08/20 05:29:33;;;;;;;7.60;5.90;;;;;;;32.09;40.17;100633.54;108458;1282;21999;-69
2023/08/20 05:31:58;;;;;;;8.90;5.40;;;;;;;32.23;39.96;100632.58;108415;1281;21981;-69
2023/08/20 05:34:24;;;;;;;8.50;5.50;;;;;;;32.37;39.69;100634.57;108385;1283;21987;-59
2023/08/20 05:36:49;;;;;;;10.90;6.80;;;;;;;32.49;39.77;100639.92;108392;1282;22024;-70
2023/08/20 05:39:15;;;;;;;8.70;7.00;;;;;;;32.63;39.56;100638.14;108388;1283;22023;-65
2023/08/20 05:41:40;;;;;;;10.40;6.60;;;;;;;32.81;39.38;100633.63;108398;1282;21983;-71
2023/08/20 05:44:06;;;;;;;9.70;6.00;;;;;;;33.00;39.29;100633.33;108380;1282;21990;-59
2023/08/20 05:46:32;;;;;;;13.30;6.30;;;;;;;33.14;38.88;100632.64;108399;1283;21993;-59
2023/08/20 05:48:57;;;;;;;10.90;5.50;;;;;;;33.25;38.61;100638.77;108435;1279;21986;-69
2023/08/20 05:51:23;;;;;;;8.90;5.00;;;;;;;33.39;38.66;100640.23;108385;1278;21998;-58
2023/08/20 05:53:48;;;;;;;7.80;5.20;;;;;;;33.61;38.39;100640.85;108379;1271;21980;-59
2023/08/20 05:56:14;;;;;;;8.60;5.20;;;;;;;33.80;38.31;100637.21;108334;1283;21989;-69
2023/08/20 05:58:40;;;;;;;8.00;5.40;;;;;;;33.94;38.28;100636.06;108370;1277;24044;-58
2023/08/20 06:01:05;;;;;;;18.20;6.70;;;;;;;34.09;38.16;100639.02;108396;1277;21976;-58
2023/08/20 06:03:31;;;;;;;11.30;5.40;;;;;;;34.22;38.02;100637.04;108394;1283;21988;-69
2023/08/20 06:05:58;;;;;;;11.40;5.60;;;;;;;34.37;37.76;100638.73;108402;1282;21989;-58
2023/08/20 06:08:24;;;;;;;17.30;5.50;;;;;;;34.54;37.42;100637.11;108456;1283;22092;-59
2023/08/20 06:10:50;;;;;;;12.80;5.70;;;;;;;34.73;37.46;100634.44;108404;1274;21989;-68
2023/08/20 06:13:16;;;;;;;13.50;5.80;;;;;;;34.95;37.22;100636.55;108445;1280;21991;-58
2023/08/20 06:15:41;;;;;;;9.90;6.30;;;;;;;35.13;36.90;100637.29;108355;1283;21984;-68
2023/08/20 06:18:07;;;;;;;15.30;7.50;;;;;;;35.28;36.75;100637.97;108337;1283;22203;-58
2023/08/20 06:20:32;;;;;;;10.40;5.70;;;;;;;35.45;36.51;100638.09;108343;1283;21986;-58
2023/08/20 06:22:58;;;;;;;7.00;5.20;;;;;;;35.62;36.17;100641.08;108494;1272;21980;-69
2023/08/20 06:25:23;;;;;;;7.30;4.60;;;;;;;35.76;36.06;100641.09;108328;1276;21952;-69
2023/08/20 06:27:49;;;;;;;6.60;4.80;;;;;;;35.94;35.99;100639.57;108331;1282;22020;-70
2023/08/20 06:30:15;;;;;;;8.80;4.50;;;;;;;36.10;35.80;100638.81;108307;1278;21982;-70
2023/08/20 06:32:41;;;;;;;8.50;5.10;;;;;;;36.31;35.53;100637.71;108391;1276;21985;-69
2023/08/20 06:35:09;;;;;;;6.80;4.20;;;;;;;36.50;35.17;100632.10;108363;1281;21982;-69
2023/08/20 06:37:34;;;;;;;9.50;4.40;;;;;;;36.65;35.07;100634.35;108392;1283;23605;-69
2023/08/20 06:40:00;;;;;;;5.80;4.30;;;;;;;36.82;34.91;100635.16;108415;1282;21972;-69
2023/08/20 06:42:25;;;;;;;7.00;4.40;;;;;;;37.00;34.60;100636.45;108416;1283;21982;-65
2023/08/20 06:44:51;;;;;;;15.60;4.50;;;;;;;37.17;34.11;100639.91;108390;1283;21983;-58
2023/08/20 06:47:17;;;;;;;10.70;4.60;;;;;;;37.32;34.00;100640.11;108406;1270;22002;-58
2023/08/20 06:49:42;;;;;;;15.40;5.00;;;;;;;37.48;33.63;100637.77;108359;1283;21993;-58
2023/08/20 06:52:09;;;;;;;10.80;4.10;;;;;;;37.69;33.64;100638.08;108453;1279;22447;-59
2023/08/20 06:54:35;;;;;;;11.00;4.50;;;;;;;37.85;33.43;100638.10;108433;1282;23140;-71
2023/08/20 06:57:01;;;;;;;9.00;4.20;;;;;;;38.04;33.09;100640.41;108041;1283;21988;-70
2023/08/20 06:59:27;;;;;;;8.20;4.20;;;;;;;38.23;32.72;100637.30;108347;1277;21987;-71
2023/08/20 07:01:52;;;;;;;9.70;4.20;;;;;;;38.36;32.37;100639.35;108430;1280;21994;-73
2023/08/20 07:04:19;;;;;;;9.10;3.90;;;;;;;38.53;32.19;100643.63;108466;1281;23619;-71
2023/08/20 07:06:45;;;;;;;10.10;4.80;;;;;;;38.71;31.99;100640.06;108413;1283;21984;-71
2023/08/20 07:09:11;;;;;;;8.80;3.80;;;;;;;38.81;31.99;100640.66;108437;1279;21997;-71
2023/08/20 07:11:37;;;;;;;12.40;4.10;;;;;;;38.96;31.87;100640.87;108275;1283;21979;-59
2023/08/20 07:14:03;;;;;;;6.70;4.50;;;;;;;39.12;31.90;100630.82;108253;1277;22000;-59
2023/08/20 07:16:28;;;;;;;8.80;4.00;;;;;;;39.31;31.29;100630.23;108374;1281;21970;-60
2023/08/20 07:18:54;;;;;;;5.40;3.50;;;;;;;39.48;31.10;100632.58;108428;1283;21988;-71
2023/08/20 07:21:20;;;;;;;5.90;3.50;;;;;;;39.62;30.80;100632.98;108361;1273;22708;-62
2023/08/20 07:23:45;;;;;;;9.60;4.50;;;;;;;39.72;30.41;100631.11;108324;1283;21983;-71
2023/08/20 07:26:14;;;;;;;14.00;4.80;;;;;;;39.88;30.31;100632.69;108376;1283;22760;-60
2023/08/20 07:31:29;;;;;;;10.40;4.60;;;;;;;40.22;30.25;100634.17;108345;1283;21949;-60
2023/08/20 07:33:56;;;;;;;6.30;3.70;;;;;;;40.42;30.22;100630.90;108320;1283;21986;-66
2023/08/20 07:36:22;;;;;;;12.90;3.90;;;;;;;40.65;29.87;100632.45;108356;1283;22166;-71
2023/08/20 07:38:48;;;;;;;8.40;4.10;;;;;;;40.81;29.49;100632.08;108173;1281;206631;-72
2023/08/20 07:41:13;;;;;;;8.80;4.10;;;;;;;40.94;29.38;100629.13;108333;1274;22083;-62
2023/08/20 07:43:39;;;;;;;5.70;3.80;;;;;;;41.13;29.07;100627.48;108482;1280;22038;-70
2023/08/20 07:46:06;;;;;;;5.20;4.00;;;;;;;41.27;28.96;100630.35;108364;1281;21990;-70
2023/08/20 07:48:31;;;;;;;7.20;3.80;;;;;;;41.36;28.40;100625.73;108383;1276;21995;-58
2023/08/20 07:50:57;;;;;;;9.30;4.10;;;;;;;41.41;28.16;100623.09;108342;1273;21992;-59
2023/08/20 07:53:23;;;;;;;6.40;3.60;;;;;;;41.48;28.16;100620.69;108384;1275;22018;-69
2023/08/20 07:55:49;;;;;;;9.70;4.60;;;;;;;41.66;28.04;100615.67;108348;1283;21983;-58
2023/08/20 07:58:14;;;;;;;5.20;3.80;;;;;;;41.85;28.17;100616.61;108359;1278;21989;-58
2023/08/20 08:00:40;;;;;;;7.70;3.90;;;;;;;42.11;27.90;100614.83;108445;1277;21966;-60
2023/08/20 08:03:06;;;;;;;9.00;4.40;;;;;;;42.32;27.67;100614.22;108363;1281;21987;-71
2023/08/20 08:05:33;;;;;;;7.90;4.30;;;;;;;42.39;27.39;100612.43;108319;1284;21993;-59
2023/08/20 08:07:58;;;;;;;6.50;3.90;;;;;;;42.28;27.25;100615.52;108336;1284;21988;-58
2023/08/20 08:10:24;;;;;;;8.40;4.20;;;;;;;42.49;27.03;100609.16;108321;1271;22196;-58
2023/08/20 08:12:49;;;;;;;10.50;4.10;;;;;;;42.73;27.09;100609.60;108344;1281;21988;-58
2023/08/20 08:15:15;;;;;;;9.60;4.30;;;;;;;43.05;26.98;100608.37;108328;1281;21991;-60
2023/08/20 08:17:40;;;;;;;10.90;4.60;;;;;;;43.31;26.77;100606.85;108365;1277;21980;-67
2023/08/20 08:20:06;;;;;;;13.60;5.00;;;;;;;43.48;26.43;100606.99;108198;1279;22037;-58
2023/08/20 08:22:32;;;;;;;16.30;4.90;;;;;;;43.50;26.10;100607.89;108388;1281;23631;-72
2023/08/20 08:24:58;;;;;;;9.60;4.30;;;;;;;43.49;26.04;100609.37;108317;1277;23612;-58
2023/08/20 08:27:23;;;;;;;9.40;4.50;;;;;;;43.49;25.71;100605.48;108328;1283;22015;-59
2023/08/20 08:29:50;;;;;;;8.00;4.20;;;;;;;43.48;25.35;100608.79;108345;1281;21982;-71
2023/08/20 08:32:16;;;;;;;5.50;3.90;;;;;;;43.40;25.16;100606.41;108344;1280;21996;-59
2023/08/20 08:34:41;;;;;;;6.50;4.10;;;;;;;43.42;25.24;100602.52;108365;1276;23049;-59
2023/08/20 08:37:07;;;;;;;10.40;4.00;;;;;;;43.51;25.28;100600.98;108351;1270;21980;-59
2023/08/20 08:39:33;;;;;;;13.90;4.20;;;;;;;43.67;25.21;100603.56;108326;1275;22001;-59
2023/08/20 08:42:02;;;;;;;11.80;4.30;;;;;;;43.83;25.12;100604.08;108315;1280;21993;-70
2023/08/20 08:44:28;;;;;;;10.20;4.40;;;;;;;44.09;24.73;100601.16;108499;1281;23733;-71
2023/08/20 08:46:54;;;;;;;7.90;4.00;;;;;;;44.29;24.76;100608.39;108238;1280;21985;-70
2023/08/20 08:49:19;;;;;;;5.80;3.80;;;;;;;44.35;24.03;100601.95;108363;1273;23709;-59
2023/08/20 08:51:45;;;;;;;9.20;4.00;;;;;;;44.41;23.86;100599.33;108268;1276;22054;-59
2023/08/20 08:54:12;;;;;;;10.40;3.50;;;;;;;44.62;23.39;100592.41;108105;1282;22024;-59
2023/08/20 08:56:37;;;;;;;7.50;3.90;;;;;;;44.78;23.39;100591.10;108438;1277;21985;-60
2023/08/20 08:59:03;;;;;;;6.60;3.40;;;;;;;44.86;23.53;100594.36;108336;1283;22157;-59
2023/08/20 09:01:29;;;;;;;7.90;3.30;;;;;;;45.08;23.77;100594.91;108333;1276;21986;-72
2023/08/20 09:03:54;;;;;;;7.90;3.70;;;;;;;45.47;23.70;100593.45;108303;1278;23605;-59
2023/08/20 09:06:20;;;;;;;8.60;3.50;;;;;;;45.89;22.98;100590.05;108336;1283;21990;-60
2023/08/20 09:08:45;;;;;;;7.40;3.50;;;;;;;46.12;21.51;100584.82;108367;1281;22720;-59
2023/08/20 09:11:11;;;;;;;6.70;3.30;;;;;;;46.25;22.39;100586.27;108443;1283;22443;-59
2023/08/20 09:13:37;;;;;;;7.60;3.70;;;;;;;46.54;22.39;100588.41;108404;1274;21999;-60
2023/08/20 09:16:06;;;;;;;7.80;3.30;;;;;;;46.84;22.47;100580.80;108396;1277;22446;-70
2023/08/20 09:18:43;;;;;;;6.00;3.00;;;;;;;47.12;22.04;100578.67;108483;1273;21971;-59
2023/08/20 09:21:11;;;;;;;6.00;3.30;;;;;;;47.41;21.88;100575.96;108356;1274;22037;-59
2023/08/20 09:23:37;;;;;;;7.20;3.50;;;;;;;47.62;21.70;100576.61;108430;1280;21977;-72
2023/08/20 09:26:03;;;;;;;7.50;3.20;;;;;;;47.72;21.45;100574.10;108340;1283;21989;-71
2023/08/20 09:28:30;;;;;;;6.80;3.00;;;;;;;47.84;21.14;100580.73;108364;1282;23095;-72
2023/08/20 09:31:01;;;;;;;10.40;2.70;;;;;;;47.76;20.95;100580.44;108312;1277;21983;-71
2023/08/20 09:33:27;;;;;;;8.50;3.30;;;;;;;47.70;20.79;100577.54;108377;1275;23065;-73
2023/08/20 09:35:53;;;;;;;7.80;3.60;;;;;;;47.79;20.92;100578.61;108357;1281;21944;-72
2023/08/20 09:38:23;;;;;;;6.30;3.20;;;;;;;47.79;20.87;100577.23;108375;1270;22077;-72
2023/08/20 09:40:49;;;;;;;5.20;2.90;;;;;;;47.63;20.55;100578.96;108346;1276;22039;-60
2023/08/20 09:43:16;;;;;;;5.30;3.20;;;;;;;47.37;20.31;100571.47;108407;1283;21983;-59
2023/08/20 09:45:42;;;;;;;6.00;2.70;;;;;;;47.13;20.27;100568.38;108393;1283;21982;-71
2023/08/20 09:48:07;;;;;;;5.90;3.10;;;;;;;47.09;20.33;100565.42;108422;1277;23760;-59
2023/08/20 09:50:36;;;;;;;6.30;2.90;;;;;;;47.20;20.17;100567.59;108273;1283;22013;-72
2023/08/20 09:53:26;;;;;;;6.60;3.20;;;;;;;47.25;20.08;100568.21;108420;1277;23708;-59
2023/08/20 09:55:52;;;;;;;8.70;2.90;;;;;;;47.15;19.74;100570.06;108253;1282;21982;-59
2023/08/20 09:58:21;;;;;;;7.10;2.90;;;;;;;47.02;19.41;100566.02;108337;1277;21978;-59
2023/08/20 10:00:49;;;;;;;10.10;3.30;;;;;;;47.00;18.80;100561.31;108390;1282;21985;-59
2023/08/20 10:03:16;;;;;;;6.30;3.30;;;;;;;46.83;18.67;100561.11;108391;1283;21951;-70
2023/08/20 10:05:41;;;;;;;5.20;2.80;;;;;;;46.49;18.61;100557.70;108426;1283;23709;-59
2023/08/20 10:08:07;;;;;;;6.70;2.80;;;;;;;46.27;19.10;100563.59;108473;1277;21979;-61
2023/08/20 10:10:33;;;;;;;6.00;3.00;;;;;;;46.37;19.33;100561.30;108303;1281;22443;-62
2023/08/20 10:12:58;;;;;;;6.30;3.10;;;;;;;46.71;19.19;100559.78;108498;1282;21985;-70
2023/08/20 10:15:26;;;;;;;6.70;2.70;;;;;;;47.05;19.06;100554.52;108417;1283;21997;-73
2023/08/20 10:17:52;;;;;;;5.70;3.10;;;;;;;47.36;18.69;100559.98;108088;1283;21986;-60
2023/08/20 10:20:17;;;;;;;6.60;2.80;;;;;;;47.37;18.41;100553.91;108398;1278;21994;-72
2023/08/20 10:22:44;;;;;;;6.10;2.60;;;;;;;47.17;18.20;100551.38;108377;1283;22021;-71
2023/08/20 10:25:11;;;;;;;6.90;2.90;;;;;;;46.86;17.58;100545.45;108426;1283;21982;-72
2023/08/20 10:27:39;;;;;;;5.40;2.80;;;;;;;46.52;17.75;100542.52;108361;1283;22150;-61
2023/08/20 10:30:15;;;;;;;7.00;3.10;;;;;;;46.48;18.16;100538.17;108452;1283;22002;-62
2023/08/20 10:32:48;;;;;;;3.80;2.60;;;;;;;46.56;17.65;100539.02;108365;1274;21992;-60
2023/08/20 10:35:26;;;;;;;5.50;2.80;;;;;;;46.54;17.91;100535.92;108390;1282;22017;-74
2023/08/20 10:38:11;;;;;;;7.50;3.30;;;;;;;46.77;17.43;100531.35;108377;1281;21981;-73
2023/08/20 10:41:08;;;;;;;4.80;3.20;;;;;;;47.09;17.86;100531.95;108322;1277;21988;-60
2023/08/20 10:43:40;;;;;;;6.80;3.00;;;;;;;47.50;17.91;100528.60;108304;1280;22057;-61
2023/08/20 10:46:19;;;;;;;7.50;3.10;;;;;;;47.92;17.98;100529.79;108290;1282;21988;-71
2023/08/20 10:48:50;;;;;;;6.80;2.80;;;;;;;48.25;17.26;100528.49;108351;1276;22028;-72
2023/08/20 10:51:32;;;;;;;6.10;3.10;;;;;;;48.23;17.12;100521.67;108387;1276;21985;-72
2023/08/20 10:54:01;;;;;;;4.90;3.20;;;;;;;48.21;16.93;100517.58;108475;1282;23058;-72
2023/08/20 10:56:40;;;;;;;5.30;3.00;;;;;;;48.40;16.89;100518.27;108306;1271;23683;-71
2023/08/20 10:59:16;;;;;;;6.80;3.10;;;;;;;48.63;16.84;100519.04;108393;1277;21991;-72
2023/08/20 11:01:51;;;;;;;5.00;3.00;;;;;;;48.75;16.99;100511.68;108352;1283;22003;-72
2023/08/20 11:04:33;;;;;;;5.20;2.90;;;;;;;49.02;17.08;100507.05;108345;1280;23315;-72
2023/08/20 11:06:59;;;;;;;5.30;3.10;;;;;;;49.37;16.89;100505.66;108364;1283;21983;-61
2023/08/20 11:09:26;;;;;;;5.30;2.80;;;;;;;49.69;16.61;100504.66;108324;1283;21980;-72
2023/08/20 11:11:52;;;;;;;7.50;2.80;;;;;;;49.92;16.39;100504.84;108432;1277;22142;-71
2023/08/20 11:14:19;;;;;;;7.10;2.70;;;;;;;50.00;16.32;100505.34;108346;1283;22039;-61